This demonstration page uses our WeatherBlox Daily Observations layout. Learn more.

Left ArrowRight Arrow

41.55636, -103.73856

Hourly Observations for July 23, 2015

Temp ( °F °C ) Dew Point ( °F °C ) Humidity (%) Winds ( mph kmh ) Pressure ( in mb ) Visibility ( mi km ) Precip ( " mm )
12:53 am 00:53 Clear 63 17.2 56 13.3 78 78 undefined N/A 29.8 1009 10 16.0934 0 0
1:53 am 01:53 Clear 59 15 56 13.3 90 90 WNW 5 7 29.81 1010 10 16.0934 0 0
2:53 am 02:53 Clear 60 15.6 56 13.3 86 86 E 3 6 29.8 1009 10 16.0934 0 0
3:53 am 03:53 Clear 59 15 55 12.8 87 87 N 6 9 29.79 1009 10 16.0934 0 0
4:53 am 04:53 Clear 57 13.9 55 12.8 93 93 Calm 29.81 1010 10 16.0934 0 0
5:53 am 05:53 Sunny 57 13.9 55 12.8 93 93 Calm 29.84 1011 10 16.0934 0 0
6:53 am 06:53 Sunny 63 17.2 57 13.9 81 81 NW 5 7 29.84 1011 10 16.0934 0 0
7:53 am 07:53 Sunny 68 20 58 14.4 70 70 NW 3 6 29.85 1011 10 16.0934 0 0
8:53 am 08:53 Sunny 74 23.3 56 13.3 54 54 NW 6 9 29.85 1011 10 16.0934 0 0
10:53 am 10:53 Sunny 84 28.9 55 12.8 37 37 NW 5 7 29.83 1010 10 16.0934 0 0
11:53 am 11:53 Sunny 87 30.6 58 14.4 37 37 VRB 3 6 29.81 1009 10 16.0934 0 0
12:53 pm 12:53 Sunny 90 32.2 58 14.4 34 34 NNW 7 11 29.81 1010 10 16.0934 0 0
1:53 pm 13:53 Sunny 92 33.3 56 13.3 30 30 VRB 7 11 29.8 1009 10 16.0934 0 0
2:53 pm 14:53 Sunny 91 32.8 49 9.4 24 24 WNW 8 13 29.79 1009 10 16.0934 0 0
3:53 pm 15:53 Sunny 94 34.4 50 10 22 22 NW 6 9 29.79 1009 10 16.0934 0 0
4:53 pm 16:53 Sunny 95 35 46 7.8 19 19 VRB 6 9 29.78 1008 10 16.0934 0 0
5:53 pm 17:53 Sunny 94 34.4 42 5.6 17 17 WSW 6 9 29.77 1008 10 16.0934 0 0
6:53 pm 18:53 Sunny 92 33.3 47 8.3 21 21 VRB 3 6 29.77 1008 10 16.0934 0 0
7:53 pm 19:53 Sunny 85 29.4 52 11.1 32 32 WSW 3 6 29.78 1008 10 16.0934 0 0
8:53 pm 20:53 Clear 78 25.6 56 13.3 47 47 undefined N/A 29.8 1009 10 16.0934 0 0
9:53 pm 21:53 Clear 70 21.1 58 14.4 66 66 ESE 5 7 29.83 1010 10 16.0934 0 0
10:53 pm 22:53 undefined 67 19.4 60 15.6 79 79 E 7 11 29.83 1010 10 16.0934 0 0
11:53 pm 23:53 undefined 66 18.9 61 16.1 84 84 E 7 11 29.84 1010 10 16.0934 0 0

Powered by AerisWeather